sensor_id;sensor_type;location;lat;lon;timestamp;P1;durP1;ratioP1;P2;durP2;ratioP2
10191;SDS011;17580;50.850;4.504;2023-12-20T00:00:35;3.80;;;1.90;;
10191;SDS011;17580;50.850;4.504;2023-12-20T00:03:03;7.77;;;2.77;;
10191;SDS011;17580;50.850;4.504;2023-12-20T00:05:31;4.73;;;2.00;;
10191;SDS011;17580;50.850;4.504;2023-12-20T00:07:58;2.60;;;1.60;;
10191;SDS011;17580;50.850;4.504;2023-12-20T00:10:25;4.10;;;1.70;;
10191;SDS011;17580;50.850;4.504;2023-12-20T00:12:53;5.20;;;1.70;;
10191;SDS011;17580;50.850;4.504;2023-12-20T00:15:21;5.40;;;1.80;;
10191;SDS011;17580;50.850;4.504;2023-12-20T00:17:49;5.90;;;2.40;;
10191;SDS011;17580;50.850;4.504;2023-12-20T00:20:16;3.83;;;1.60;;
10191;SDS011;17580;50.850;4.504;2023-12-20T00:22:44;6.43;;;2.73;;
10191;SDS011;17580;50.850;4.504;2023-12-20T00:25:11;3.70;;;1.80;;
10191;SDS011;17580;50.850;4.504;2023-12-20T00:27:38;5.90;;;1.67;;
10191;SDS011;17580;50.850;4.504;2023-12-20T00:30:06;8.17;;;2.20;;
10191;SDS011;17580;50.850;4.504;2023-12-20T00:32:35;2.87;;;1.97;;
10191;SDS011;17580;50.850;4.504;2023-12-20T00:35:03;7.87;;;2.40;;
10191;SDS011;17580;50.850;4.504;2023-12-20T00:37:30;11.53;;;2.13;;
10191;SDS011;17580;50.850;4.504;2023-12-20T00:39:58;6.83;;;2.23;;
10191;SDS011;17580;50.850;4.504;2023-12-20T00:42:25;5.97;;;2.10;;
10191;SDS011;17580;50.850;4.504;2023-12-20T00:44:53;2.73;;;1.60;;
10191;SDS011;17580;50.850;4.504;2023-12-20T00:47:20;4.80;;;2.07;;
10191;SDS011;17580;50.850;4.504;2023-12-20T00:49:49;6.17;;;1.77;;
10191;SDS011;17580;50.850;4.504;2023-12-20T00:52:17;3.07;;;1.73;;
10191;SDS011;17580;50.850;4.504;2023-12-20T00:54:44;5.70;;;2.50;;
10191;SDS011;17580;50.850;4.504;2023-12-20T00:57:11;8.50;;;2.90;;
10191;SDS011;17580;50.850;4.504;2023-12-20T00:59:39;6.90;;;2.27;;
10191;SDS011;17580;50.850;4.504;2023-12-20T01:02:06;7.30;;;2.27;;
10191;SDS011;17580;50.850;4.504;2023-12-20T01:04:34;3.63;;;1.60;;
10191;SDS011;17580;50.850;4.504;2023-12-20T01:07:02;5.83;;;1.90;;
10191;SDS011;17580;50.850;4.504;2023-12-20T01:09:30;16.60;;;2.83;;
10191;SDS011;17580;50.850;4.504;2023-12-20T01:11:57;9.20;;;1.83;;
10191;SDS011;17580;50.850;4.504;2023-12-20T01:14:24;7.50;;;2.33;;
10191;SDS011;17580;50.850;4.504;2023-12-20T01:16:51;7.43;;;2.27;;
10191;SDS011;17580;50.850;4.504;2023-12-20T01:19:19;7.90;;;2.40;;
10191;SDS011;17580;50.850;4.504;2023-12-20T01:21:46;8.67;;;2.03;;
10191;SDS011;17580;50.850;4.504;2023-12-20T01:24:15;8.90;;;1.90;;
10191;SDS011;17580;50.850;4.504;2023-12-20T01:26:42;6.57;;;2.20;;
10191;SDS011;17580;50.850;4.504;2023-12-20T01:29:09;7.20;;;2.67;;
10191;SDS011;17580;50.850;4.504;2023-12-20T01:31:37;5.83;;;1.97;;
10191;SDS011;17580;50.850;4.504;2023-12-20T01:34:04;13.83;;;3.20;;
10191;SDS011;17580;50.850;4.504;2023-12-20T01:36:31;8.63;;;2.63;;
10191;SDS011;17580;50.850;4.504;2023-12-20T01:38:59;7.17;;;2.50;;
10191;SDS011;17580;50.850;4.504;2023-12-20T01:41:28;8.43;;;2.70;;
10191;SDS011;17580;50.850;4.504;2023-12-20T01:43:55;5.10;;;2.87;;
10191;SDS011;17580;50.850;4.504;2023-12-20T01:46:22;9.03;;;2.67;;
10191;SDS011;17580;50.850;4.504;2023-12-20T01:48:49;9.07;;;3.20;;
10191;SDS011;17580;50.850;4.504;2023-12-20T01:51:17;4.83;;;3.03;;
10191;SDS011;17580;50.850;4.504;2023-12-20T01:53:44;7.63;;;2.60;;
10191;SDS011;17580;50.850;4.504;2023-12-20T01:56:11;8.30;;;2.67;;
10191;SDS011;17580;50.850;4.504;2023-12-20T01:58:43;6.93;;;2.40;;
10191;SDS011;17580;50.850;4.504;2023-12-20T02:01:11;6.97;;;2.63;;
10191;SDS011;17580;50.850;4.504;2023-12-20T02:03:38;7.83;;;2.70;;
10191;SDS011;17580;50.850;4.504;2023-12-20T02:06:06;9.27;;;2.80;;
10191;SDS011;17580;50.850;4.504;2023-12-20T02:08:34;9.63;;;2.87;;
10191;SDS011;17580;50.850;4.504;2023-12-20T02:11:01;10.93;;;2.77;;
10191;SDS011;17580;50.850;4.504;2023-12-20T02:13:29;5.80;;;2.60;;
10191;SDS011;17580;50.850;4.504;2023-12-20T02:15:58;8.37;;;2.47;;
10191;SDS011;17580;50.850;4.504;2023-12-20T02:18:26;11.07;;;3.07;;
10191;SDS011;17580;50.850;4.504;2023-12-20T02:20:53;6.77;;;2.43;;
10191;SDS011;17580;50.850;4.504;2023-12-20T02:23:23;6.57;;;2.10;;
10191;SDS011;17580;50.850;4.504;2023-12-20T02:25:50;5.17;;;2.43;;
10191;SDS011;17580;50.850;4.504;2023-12-20T02:28:17;6.20;;;2.67;;
10191;SDS011;17580;50.850;4.504;2023-12-20T02:30:46;7.93;;;2.77;;
10191;SDS011;17580;50.850;4.504;2023-12-20T02:33:14;7.97;;;3.33;;
10191;SDS011;17580;50.850;4.504;2023-12-20T02:35:42;7.87;;;2.93;;
10191;SDS011;17580;50.850;4.504;2023-12-20T02:38:09;9.03;;;2.30;;
10191;SDS011;17580;50.850;4.504;2023-12-20T02:40:38;9.20;;;2.87;;
10191;SDS011;17580;50.850;4.504;2023-12-20T02:43:05;13.93;;;3.40;;
10191;SDS011;17580;50.850;4.504;2023-12-20T02:45:32;5.07;;;2.80;;
10191;SDS011;17580;50.850;4.504;2023-12-20T02:47:59;8.27;;;2.50;;
10191;SDS011;17580;50.850;4.504;2023-12-20T02:50:26;11.37;;;3.30;;
10191;SDS011;17580;50.850;4.504;2023-12-20T02:52:53;9.37;;;3.17;;
10191;SDS011;17580;50.850;4.504;2023-12-20T02:55:20;13.97;;;3.50;;
10191;SDS011;17580;50.850;4.504;2023-12-20T02:57:49;7.90;;;2.50;;
10191;SDS011;17580;50.850;4.504;2023-12-20T03:00:16;6.13;;;2.70;;
10191;SDS011;17580;50.850;4.504;2023-12-20T03:02:44;13.80;;;4.37;;
10191;SDS011;17580;50.850;4.504;2023-12-20T03:05:11;6.70;;;2.93;;
10191;SDS011;17580;50.850;4.504;2023-12-20T03:07:39;7.40;;;2.73;;
10191;SDS011;17580;50.850;4.504;2023-12-20T03:10:06;6.93;;;2.83;;
10191;SDS011;17580;50.850;4.504;2023-12-20T03:12:34;10.93;;;2.83;;
10191;SDS011;17580;50.850;4.504;2023-12-20T03:15:03;14.33;;;3.13;;
10191;SDS011;17580;50.850;4.504;2023-12-20T03:17:30;12.23;;;3.47;;
10191;SDS011;17580;50.850;4.504;2023-12-20T03:19:57;10.30;;;4.07;;
10191;SDS011;17580;50.850;4.504;2023-12-20T03:22:25;8.77;;;3.40;;
10191;SDS011;17580;50.850;4.504;2023-12-20T03:24:52;5.47;;;3.10;;
10191;SDS011;17580;50.850;4.504;2023-12-20T03:27:19;11.40;;;3.67;;
10191;SDS011;17580;50.850;4.504;2023-12-20T03:29:46;8.77;;;3.57;;
10191;SDS011;17580;50.850;4.504;2023-12-20T03:32:15;8.37;;;3.43;;
10191;SDS011;17580;50.850;4.504;2023-12-20T03:34:42;8.47;;;3.83;;
10191;SDS011;17580;50.850;4.504;2023-12-20T03:37:10;7.40;;;3.40;;
10191;SDS011;17580;50.850;4.504;2023-12-20T03:39:37;7.43;;;2.67;;
10191;SDS011;17580;50.850;4.504;2023-12-20T03:42:04;13.90;;;4.10;;
10191;SDS011;17580;50.850;4.504;2023-12-20T03:44:32;11.47;;;4.00;;
10191;SDS011;17580;50.850;4.504;2023-12-20T03:46:59;4.80;;;2.83;;
10191;SDS011;17580;50.850;4.504;2023-12-20T03:49:28;11.47;;;3.53;;
10191;SDS011;17580;50.850;4.504;2023-12-20T03:51:55;5.47;;;3.20;;
10191;SDS011;17580;50.850;4.504;2023-12-20T03:54:23;11.27;;;4.00;;
10191;SDS011;17580;50.850;4.504;2023-12-20T03:56:51;19.87;;;4.07;;
10191;SDS011;17580;50.850;4.504;2023-12-20T03:59:18;12.10;;;3.87;;
10191;SDS011;17580;50.850;4.504;2023-12-20T04:01:45;10.07;;;4.33;;
10191;SDS011;17580;50.850;4.504;2023-12-20T04:04:12;9.80;;;4.03;;
10191;SDS011;17580;50.850;4.504;2023-12-20T04:06:41;11.93;;;4.13;;
10191;SDS011;17580;50.850;4.504;2023-12-20T04:09:09;10.40;;;4.17;;
10191;SDS011;17580;50.850;4.504;2023-12-20T04:11:37;14.23;;;4.17;;
10191;SDS011;17580;50.850;4.504;2023-12-20T04:14:04;14.43;;;4.50;;
10191;SDS011;17580;50.850;4.504;2023-12-20T04:16:32;8.50;;;3.43;;
10191;SDS011;17580;50.850;4.504;2023-12-20T04:18:59;9.17;;;3.90;;
10191;SDS011;17580;50.850;4.504;2023-12-20T04:21:27;11.07;;;4.03;;
10191;SDS011;17580;50.850;4.504;2023-12-20T04:23:56;10.90;;;3.90;;
10191;SDS011;17580;50.850;4.504;2023-12-20T04:26:23;9.83;;;3.40;;
10191;SDS011;17580;50.850;4.504;2023-12-20T04:28:50;9.33;;;4.23;;
10191;SDS011;17580;50.850;4.504;2023-12-20T04:31:18;5.07;;;2.93;;
10191;SDS011;17580;50.850;4.504;2023-12-20T04:33:45;13.30;;;3.67;;
10191;SDS011;17580;50.850;4.504;2023-12-20T04:36:12;6.17;;;3.03;;
10191;SDS011;17580;50.850;4.504;2023-12-20T04:38:40;9.50;;;3.57;;
10191;SDS011;17580;50.850;4.504;2023-12-20T04:41:09;18.30;;;3.93;;
10191;SDS011;17580;50.850;4.504;2023-12-20T04:43:36;11.23;;;3.60;;
10191;SDS011;17580;50.850;4.504;2023-12-20T04:46:03;11.77;;;3.60;;
10191;SDS011;17580;50.850;4.504;2023-12-20T04:48:31;9.20;;;3.73;;
10191;SDS011;17580;50.850;4.504;2023-12-20T04:50:58;12.37;;;3.50;;
10191;SDS011;17580;50.850;4.504;2023-12-20T04:53:25;12.33;;;3.50;;
10191;SDS011;17580;50.850;4.504;2023-12-20T04:55:53;5.10;;;3.23;;
10191;SDS011;17580;50.850;4.504;2023-12-20T04:58:21;11.03;;;3.93;;
10191;SDS011;17580;50.850;4.504;2023-12-20T05:00:49;11.20;;;3.43;;
10191;SDS011;17580;50.850;4.504;2023-12-20T05:03:16;6.17;;;2.97;;
10191;SDS011;17580;50.850;4.504;2023-12-20T05:05:43;10.63;;;3.50;;
10191;SDS011;17580;50.850;4.504;2023-12-20T05:08:10;10.83;;;3.90;;
10191;SDS011;17580;50.850;4.504;2023-12-20T05:10:38;13.07;;;3.30;;
10191;SDS011;17580;50.850;4.504;2023-12-20T05:13:05;7.90;;;3.50;;
10191;SDS011;17580;50.850;4.504;2023-12-20T05:15:34;9.97;;;3.20;;
10191;SDS011;17580;50.850;4.504;2023-12-20T05:18:02;11.83;;;3.17;;
10191;SDS011;17580;50.850;4.504;2023-12-20T05:20:29;9.77;;;3.20;;
10191;SDS011;17580;50.850;4.504;2023-12-20T05:22:57;12.67;;;3.33;;
10191;SDS011;17580;50.850;4.504;2023-12-20T05:25:24;10.57;;;3.73;;
10191;SDS011;17580;50.850;4.504;2023-12-20T05:27:51;14.00;;;3.50;;
10191;SDS011;17580;50.850;4.504;2023-12-20T05:30:18;10.47;;;3.43;;
10191;SDS011;17580;50.850;4.504;2023-12-20T05:32:47;14.80;;;3.20;;
10191;SDS011;17580;50.850;4.504;2023-12-20T05:35:15;12.67;;;4.27;;
10191;SDS011;17580;50.850;4.504;2023-12-20T05:37:42;13.97;;;4.00;;
10191;SDS011;17580;50.850;4.504;2023-12-20T05:40:10;9.53;;;3.43;;
10191;SDS011;17580;50.850;4.504;2023-12-20T05:42:38;13.10;;;4.03;;
10191;SDS011;17580;50.850;4.504;2023-12-20T05:45:05;11.63;;;3.50;;
10191;SDS011;17580;50.850;4.504;2023-12-20T05:47:33;11.93;;;4.47;;
10191;SDS011;17580;50.850;4.504;2023-12-20T05:50:01;10.93;;;3.67;;
10191;SDS011;17580;50.850;4.504;2023-12-20T05:52:29;12.00;;;4.00;;
10191;SDS011;17580;50.850;4.504;2023-12-20T05:54:56;14.07;;;3.70;;
10191;SDS011;17580;50.850;4.504;2023-12-20T05:57:26;9.60;;;3.63;;
10191;SDS011;17580;50.850;4.504;2023-12-20T05:59:53;9.27;;;3.20;;
10191;SDS011;17580;50.850;4.504;2023-12-20T06:02:20;12.47;;;3.77;;
10191;SDS011;17580;50.850;4.504;2023-12-20T06:04:48;15.37;;;4.40;;
10191;SDS011;17580;50.850;4.504;2023-12-20T06:07:17;13.90;;;3.88;;
10191;SDS011;17580;50.850;4.504;2023-12-20T06:09:44;9.50;;;3.20;;
10191;SDS011;17580;50.850;4.504;2023-12-20T06:12:11;11.93;;;3.70;;
10191;SDS011;17580;50.850;4.504;2023-12-20T06:14:38;11.00;;;3.37;;
10191;SDS011;17580;50.850;4.504;2023-12-20T06:17:06;10.73;;;3.23;;
10191;SDS011;17580;50.850;4.504;2023-12-20T06:19:33;9.20;;;3.37;;
10191;SDS011;17580;50.850;4.504;2023-12-20T06:22:00;9.43;;;3.53;;
10191;SDS011;17580;50.850;4.504;2023-12-20T06:24:29;12.63;;;3.43;;
10191;SDS011;17580;50.850;4.504;2023-12-20T06:26:58;10.27;;;3.30;;
10191;SDS011;17580;50.850;4.504;2023-12-20T06:29:25;9.73;;;2.73;;
10191;SDS011;17580;50.850;4.504;2023-12-20T06:31:52;12.03;;;3.37;;
10191;SDS011;17580;50.850;4.504;2023-12-20T06:34:19;15.20;;;3.27;;
10191;SDS011;17580;50.850;4.504;2023-12-20T06:36:47;9.00;;;3.10;;
10191;SDS011;17580;50.850;4.504;2023-12-20T06:39:14;5.43;;;2.73;;
10191;SDS011;17580;50.850;4.504;2023-12-20T06:41:43;7.67;;;3.30;;
10191;SDS011;17580;50.850;4.504;2023-12-20T06:44:10;24.80;;;3.43;;
10191;SDS011;17580;50.850;4.504;2023-12-20T06:46:37;11.30;;;3.20;;
10191;SDS011;17580;50.850;4.504;2023-12-20T06:49:05;9.10;;;2.57;;
10191;SDS011;17580;50.850;4.504;2023-12-20T06:51:32;12.40;;;3.03;;
10191;SDS011;17580;50.850;4.504;2023-12-20T06:53:59;13.47;;;3.00;;
10191;SDS011;17580;50.850;4.504;2023-12-20T06:56:27;11.10;;;3.27;;
10191;SDS011;17580;50.850;4.504;2023-12-20T06:58:56;13.17;;;3.00;;
10191;SDS011;17580;50.850;4.504;2023-12-20T07:01:23;9.00;;;4.00;;
10191;SDS011;17580;50.850;4.504;2023-12-20T07:03:51;13.53;;;3.10;;
10191;SDS011;17580;50.850;4.504;2023-12-20T07:06:18;11.67;;;3.23;;
10191;SDS011;17580;50.850;4.504;2023-12-20T07:08:45;8.63;;;3.30;;
10191;SDS011;17580;50.850;4.504;2023-12-20T07:11:13;7.40;;;2.70;;
10191;SDS011;17580;50.850;4.504;2023-12-20T07:13:40;7.53;;;2.90;;
10191;SDS011;17580;50.850;4.504;2023-12-20T07:16:09;12.00;;;3.13;;
10191;SDS011;17580;50.850;4.504;2023-12-20T07:18:37;8.30;;;2.57;;
10191;SDS011;17580;50.850;4.504;2023-12-20T07:21:04;12.33;;;2.73;;
10191;SDS011;17580;50.850;4.504;2023-12-20T07:23:33;8.40;;;2.83;;
10191;SDS011;17580;50.850;4.504;2023-12-20T07:26:00;10.17;;;3.00;;
10191;SDS011;17580;50.850;4.504;2023-12-20T07:28:29;6.53;;;2.43;;
10191;SDS011;17580;50.850;4.504;2023-12-20T07:30:56;8.40;;;3.20;;
10191;SDS011;17580;50.850;4.504;2023-12-20T07:33:25;7.47;;;2.83;;
10191;SDS011;17580;50.850;4.504;2023-12-20T07:35:52;9.67;;;2.93;;
10191;SDS011;17580;50.850;4.504;2023-12-20T07:38:20;15.07;;;2.70;;
10191;SDS011;17580;50.850;4.504;2023-12-20T07:40:47;9.70;;;2.70;;
10191;SDS011;17580;50.850;4.504;2023-12-20T07:43:14;9.50;;;2.93;;
10191;SDS011;17580;50.850;4.504;2023-12-20T07:45:41;16.37;;;3.80;;
10191;SDS011;17580;50.850;4.504;2023-12-20T07:48:09;11.97;;;2.73;;
10191;SDS011;17580;50.850;4.504;2023-12-20T07:50:37;12.37;;;2.63;;
10191;SDS011;17580;50.850;4.504;2023-12-20T07:53:05;10.33;;;3.00;;
10191;SDS011;17580;50.850;4.504;2023-12-20T07:55:32;7.17;;;3.00;;
10191;SDS011;17580;50.850;4.504;2023-12-20T07:58:00;12.20;;;3.17;;
10191;SDS011;17580;50.850;4.504;2023-12-20T08:00:27;10.83;;;2.57;;
10191;SDS011;17580;50.850;4.504;2023-12-20T08:02:55;7.60;;;2.67;;
10191;SDS011;17580;50.850;4.504;2023-12-20T08:05:22;10.00;;;3.20;;
10191;SDS011;17580;50.850;4.504;2023-12-20T08:07:51;11.57;;;3.07;;
10191;SDS011;17580;50.850;4.504;2023-12-20T08:10:19;8.60;;;2.70;;
10191;SDS011;17580;50.850;4.504;2023-12-20T08:12:46;8.40;;;2.53;;
10191;SDS011;17580;50.850;4.504;2023-12-20T08:15:13;8.03;;;2.37;;
10191;SDS011;17580;50.850;4.504;2023-12-20T08:17:41;10.03;;;3.03;;
10191;SDS011;17580;50.850;4.504;2023-12-20T08:20:08;12.47;;;3.57;;
10191;SDS011;17580;50.850;4.504;2023-12-20T08:22:35;11.00;;;3.73;;
10191;SDS011;17580;50.850;4.504;2023-12-20T08:25:05;10.00;;;3.10;;
10191;SDS011;17580;50.850;4.504;2023-12-20T08:27:33;10.90;;;2.67;;
10191;SDS011;17580;50.850;4.504;2023-12-20T08:30:00;10.30;;;3.70;;
10191;SDS011;17580;50.850;4.504;2023-12-20T08:32:28;16.23;;;4.40;;
10191;SDS011;17580;50.850;4.504;2023-12-20T08:34:55;13.17;;;4.20;;
10191;SDS011;17580;50.850;4.504;2023-12-20T08:37:23;9.10;;;3.60;;
10191;SDS011;17580;50.850;4.504;2023-12-20T08:39:50;13.23;;;3.03;;
10191;SDS011;17580;50.850;4.504;2023-12-20T08:42:19;12.63;;;3.17;;
10191;SDS011;17580;50.850;4.504;2023-12-20T08:44:46;16.77;;;6.03;;
10191;SDS011;17580;50.850;4.504;2023-12-20T08:47:14;19.10;;;5.47;;
10191;SDS011;17580;50.850;4.504;2023-12-20T08:49:42;20.80;;;6.67;;
10191;SDS011;17580;50.850;4.504;2023-12-20T08:52:11;8.77;;;3.03;;
10191;SDS011;17580;50.850;4.504;2023-12-20T08:54:38;13.67;;;4.47;;
10191;SDS011;17580;50.850;4.504;2023-12-20T08:57:06;14.30;;;4.20;;
10191;SDS011;17580;50.850;4.504;2023-12-20T08:59:34;8.33;;;3.20;;
10191;SDS011;17580;50.850;4.504;2023-12-20T09:02:02;13.60;;;3.10;;
10191;SDS011;17580;50.850;4.504;2023-12-20T09:04:29;7.23;;;2.57;;
10191;SDS011;17580;50.850;4.504;2023-12-20T09:06:59;12.57;;;3.17;;
10191;SDS011;17580;50.850;4.504;2023-12-20T09:09:27;11.67;;;3.33;;
10191;SDS011;17580;50.850;4.504;2023-12-20T09:11:55;8.10;;;3.20;;
10191;SDS011;17580;50.850;4.504;2023-12-20T09:14:23;11.43;;;3.07;;
10191;SDS011;17580;50.850;4.504;2023-12-20T09:16:52;13.13;;;2.87;;
10191;SDS011;17580;50.850;4.504;2023-12-20T09:19:21;8.53;;;2.70;;
10191;SDS011;17580;50.850;4.504;2023-12-20T09:21:48;10.50;;;2.90;;
10191;SDS011;17580;50.850;4.504;2023-12-20T09:24:15;7.93;;;3.30;;
10191;SDS011;17580;50.850;4.504;2023-12-20T09:26:42;12.43;;;3.57;;
10191;SDS011;17580;50.850;4.504;2023-12-20T09:29:10;9.60;;;2.60;;
10191;SDS011;17580;50.850;4.504;2023-12-20T09:31:40;13.70;;;2.90;;
10191;SDS011;17580;50.850;4.504;2023-12-20T09:34:10;11.10;;;3.23;;
10191;SDS011;17580;50.850;4.504;2023-12-20T09:36:37;10.53;;;2.80;;
10191;SDS011;17580;50.850;4.504;2023-12-20T09:39:11;19.40;;;3.03;;
10191;SDS011;17580;50.850;4.504;2023-12-20T09:41:39;8.43;;;3.37;;
10191;SDS011;17580;50.850;4.504;2023-12-20T09:44:10;12.97;;;3.20;;
10191;SDS011;17580;50.850;4.504;2023-12-20T09:46:39;8.83;;;3.37;;
10191;SDS011;17580;50.850;4.504;2023-12-20T09:49:11;15.53;;;3.03;;
10191;SDS011;17580;50.850;4.504;2023-12-20T09:51:39;10.47;;;2.97;;
10191;SDS011;17580;50.850;4.504;2023-12-20T09:54:06;5.57;;;2.67;;
10191;SDS011;17580;50.850;4.504;2023-12-20T09:56:34;8.67;;;3.33;;
10191;SDS011;17580;50.850;4.504;2023-12-20T09:59:01;7.37;;;3.00;;
10191;SDS011;17580;50.850;4.504;2023-12-20T10:01:29;8.60;;;3.20;;
10191;SDS011;17580;50.850;4.504;2023-12-20T10:03:57;9.70;;;3.27;;
10191;SDS011;17580;50.850;4.504;2023-12-20T10:06:26;11.10;;;2.77;;
10191;SDS011;17580;50.850;4.504;2023-12-20T10:08:53;8.20;;;2.87;;
10191;SDS011;17580;50.850;4.504;2023-12-20T10:11:21;8.57;;;3.10;;
10191;SDS011;17580;50.850;4.504;2023-12-20T10:13:48;10.37;;;3.43;;
10191;SDS011;17580;50.850;4.504;2023-12-20T10:16:15;8.03;;;2.60;;
10191;SDS011;17580;50.850;4.504;2023-12-20T10:18:42;7.23;;;2.90;;
10191;SDS011;17580;50.850;4.504;2023-12-20T10:21:10;11.17;;;3.03;;
10191;SDS011;17580;50.850;4.504;2023-12-20T10:23:38;11.27;;;3.37;;
10191;SDS011;17580;50.850;4.504;2023-12-20T10:26:06;15.13;;;3.33;;
10191;SDS011;17580;50.850;4.504;2023-12-20T10:28:34;26.00;;;4.03;;
10191;SDS011;17580;50.850;4.504;2023-12-20T10:31:02;7.57;;;2.87;;
10191;SDS011;17580;50.850;4.504;2023-12-20T10:33:29;13.20;;;4.40;;
10191;SDS011;17580;50.850;4.504;2023-12-20T10:35:57;10.43;;;2.77;;
10191;SDS011;17580;50.850;4.504;2023-12-20T10:38:25;10.97;;;3.13;;
10191;SDS011;17580;50.850;4.504;2023-12-20T10:40:57;15.37;;;3.43;;
10191;SDS011;17580;50.850;4.504;2023-12-20T10:43:24;12.53;;;3.47;;
10191;SDS011;17580;50.850;4.504;2023-12-20T10:45:52;6.73;;;3.10;;
10191;SDS011;17580;50.850;4.504;2023-12-20T10:48:20;7.40;;;3.17;;
10191;SDS011;17580;50.850;4.504;2023-12-20T10:50:54;8.60;;;3.13;;
10191;SDS011;17580;50.850;4.504;2023-12-20T10:53:22;12.93;;;3.33;;
10191;SDS011;17580;50.850;4.504;2023-12-20T10:55:49;13.00;;;3.93;;
10191;SDS011;17580;50.850;4.504;2023-12-20T10:58:20;9.40;;;3.27;;
10191;SDS011;17580;50.850;4.504;2023-12-20T11:00:47;10.10;;;3.13;;
10191;SDS011;17580;50.850;4.504;2023-12-20T11:03:18;9.53;;;2.87;;
10191;SDS011;17580;50.850;4.504;2023-12-20T11:05:50;13.50;;;4.53;;
10191;SDS011;17580;50.850;4.504;2023-12-20T11:08:20;10.23;;;3.70;;
10191;SDS011;17580;50.850;4.504;2023-12-20T11:10:51;13.93;;;3.60;;
10191;SDS011;17580;50.850;4.504;2023-12-20T11:13:27;8.73;;;3.03;;
10191;SDS011;17580;50.850;4.504;2023-12-20T11:15:55;9.50;;;2.93;;
10191;SDS011;17580;50.850;4.504;2023-12-20T11:18:28;8.50;;;2.83;;
10191;SDS011;17580;50.850;4.504;2023-12-20T11:20:55;15.27;;;4.50;;
10191;SDS011;17580;50.850;4.504;2023-12-20T11:23:27;12.83;;;3.40;;
10191;SDS011;17580;50.850;4.504;2023-12-20T11:25:56;17.00;;;4.30;;
10191;SDS011;17580;50.850;4.504;2023-12-20T11:28:26;14.83;;;4.27;;
10191;SDS011;17580;50.850;4.504;2023-12-20T11:30:55;9.23;;;3.43;;
10191;SDS011;17580;50.850;4.504;2023-12-20T11:33:25;11.97;;;4.40;;
10191;SDS011;17580;50.850;4.504;2023-12-20T11:35:55;13.43;;;3.30;;
10191;SDS011;17580;50.850;4.504;2023-12-20T11:38:22;14.70;;;3.63;;
10191;SDS011;17580;50.850;4.504;2023-12-20T11:40:50;7.73;;;3.27;;
10191;SDS011;17580;50.850;4.504;2023-12-20T11:46:04;7.97;;;3.47;;
10191;SDS011;17580;50.850;4.504;2023-12-20T11:48:32;15.50;;;3.83;;
10191;SDS011;17580;50.850;4.504;2023-12-20T11:50:59;11.50;;;3.27;;
10191;SDS011;17580;50.850;4.504;2023-12-20T11:53:28;11.87;;;3.53;;
10191;SDS011;17580;50.850;4.504;2023-12-20T11:55:57;14.43;;;4.50;;
10191;SDS011;17580;50.850;4.504;2023-12-20T11:58:25;12.33;;;4.00;;
10191;SDS011;17580;50.850;4.504;2023-12-20T12:00:52;11.23;;;3.97;;
10191;SDS011;17580;50.850;4.504;2023-12-20T12:03:21;9.57;;;4.00;;
10191;SDS011;17580;50.850;4.504;2023-12-20T12:05:49;9.33;;;2.87;;
10191;SDS011;17580;50.850;4.504;2023-12-20T12:08:16;14.73;;;3.40;;
10191;SDS011;17580;50.850;4.504;2023-12-20T12:10:44;17.70;;;4.13;;
10191;SDS011;17580;50.850;4.504;2023-12-20T12:13:11;7.03;;;3.10;;
10191;SDS011;17580;50.850;4.504;2023-12-20T12:15:39;10.30;;;3.77;;
10191;SDS011;17580;50.850;4.504;2023-12-20T12:18:07;12.00;;;4.17;;
10191;SDS011;17580;50.850;4.504;2023-12-20T12:20:36;18.53;;;4.53;;
10191;SDS011;17580;50.850;4.504;2023-12-20T12:23:04;18.03;;;4.03;;
10191;SDS011;17580;50.850;4.504;2023-12-20T12:25:32;13.20;;;4.03;;
10191;SDS011;17580;50.850;4.504;2023-12-20T12:28:00;19.03;;;4.37;;
10191;SDS011;17580;50.850;4.504;2023-12-20T12:30:27;17.33;;;4.83;;
10191;SDS011;17580;50.850;4.504;2023-12-20T12:32:55;11.97;;;3.67;;
10191;SDS011;17580;50.850;4.504;2023-12-20T12:35:23;9.30;;;3.10;;
10191;SDS011;17580;50.850;4.504;2023-12-20T12:37:52;11.60;;;3.73;;
10191;SDS011;17580;50.850;4.504;2023-12-20T12:40:19;10.90;;;3.80;;
10191;SDS011;17580;50.850;4.504;2023-12-20T12:42:47;9.70;;;3.20;;
10191;SDS011;17580;50.850;4.504;2023-12-20T12:45:15;13.20;;;3.33;;
10191;SDS011;17580;50.850;4.504;2023-12-20T12:47:42;13.00;;;4.67;;
10191;SDS011;17580;50.850;4.504;2023-12-20T12:50:09;13.93;;;4.37;;
10191;SDS011;17580;50.850;4.504;2023-12-20T12:52:37;12.17;;;4.03;;
10191;SDS011;17580;50.850;4.504;2023-12-20T12:55:06;14.63;;;3.73;;
10191;SDS011;17580;50.850;4.504;2023-12-20T12:57:33;6.80;;;3.10;;
10191;SDS011;17580;50.850;4.504;2023-12-20T13:00:01;9.97;;;2.60;;
10191;SDS011;17580;50.850;4.504;2023-12-20T13:02:30;10.43;;;3.33;;
10191;SDS011;17580;50.850;4.504;2023-12-20T13:04:57;11.33;;;3.80;;
10191;SDS011;17580;50.850;4.504;2023-12-20T13:07:26;14.73;;;3.30;;
10191;SDS011;17580;50.850;4.504;2023-12-20T13:09:53;8.47;;;3.20;;
10191;SDS011;17580;50.850;4.504;2023-12-20T13:12:22;7.70;;;2.80;;
10191;SDS011;17580;50.850;4.504;2023-12-20T13:14:49;8.13;;;2.67;;
10191;SDS011;17580;50.850;4.504;2023-12-20T13:17:17;13.77;;;3.67;;
10191;SDS011;17580;50.850;4.504;2023-12-20T13:19:44;16.53;;;3.87;;
10191;SDS011;17580;50.850;4.504;2023-12-20T13:22:11;10.67;;;3.23;;
10191;SDS011;17580;50.850;4.504;2023-12-20T13:24:39;7.53;;;3.23;;
10191;SDS011;17580;50.850;4.504;2023-12-20T13:27:06;18.23;;;4.00;;
10191;SDS011;17580;50.850;4.504;2023-12-20T13:29:35;13.70;;;3.77;;
10191;SDS011;17580;50.850;4.504;2023-12-20T13:32:02;10.93;;;4.17;;
10191;SDS011;17580;50.850;4.504;2023-12-20T13:34:29;11.67;;;3.70;;
10191;SDS011;17580;50.850;4.504;2023-12-20T13:36:57;12.73;;;3.47;;
10191;SDS011;17580;50.850;4.504;2023-12-20T13:39:24;11.77;;;3.20;;
10191;SDS011;17580;50.850;4.504;2023-12-20T13:41:52;9.77;;;2.63;;
10191;SDS011;17580;50.850;4.504;2023-12-20T13:44:20;12.70;;;3.60;;
10191;SDS011;17580;50.850;4.504;2023-12-20T13:46:48;7.73;;;2.90;;
10191;SDS011;17580;50.850;4.504;2023-12-20T13:49:16;8.30;;;2.97;;
10191;SDS011;17580;50.850;4.504;2023-12-20T13:51:43;13.07;;;2.77;;
10191;SDS011;17580;50.850;4.504;2023-12-20T13:54:12;6.37;;;2.77;;
10191;SDS011;17580;50.850;4.504;2023-12-20T13:56:39;11.93;;;2.83;;
10191;SDS011;17580;50.850;4.504;2023-12-20T13:59:06;10.63;;;2.83;;
10191;SDS011;17580;50.850;4.504;2023-12-20T14:01:34;13.63;;;2.93;;
10191;SDS011;17580;50.850;4.504;2023-12-20T14:04:03;10.97;;;2.87;;
10191;SDS011;17580;50.850;4.504;2023-12-20T14:06:30;8.93;;;3.07;;
10191;SDS011;17580;50.850;4.504;2023-12-20T14:08:57;12.03;;;3.30;;
10191;SDS011;17580;50.850;4.504;2023-12-20T14:11:25;14.67;;;3.13;;
10191;SDS011;17580;50.850;4.504;2023-12-20T14:13:53;9.03;;;2.80;;
10191;SDS011;17580;50.850;4.504;2023-12-20T14:16:23;5.37;;;2.60;;
10191;SDS011;17580;50.850;4.504;2023-12-20T14:18:50;11.57;;;3.10;;
10191;SDS011;17580;50.850;4.504;2023-12-20T14:21:19;9.20;;;2.67;;
10191;SDS011;17580;50.850;4.504;2023-12-20T14:23:49;15.40;;;3.10;;
10191;SDS011;17580;50.850;4.504;2023-12-20T14:26:17;7.07;;;2.80;;
10191;SDS011;17580;50.850;4.504;2023-12-20T14:28:44;8.50;;;2.53;;
10191;SDS011;17580;50.850;4.504;2023-12-20T14:31:11;11.30;;;3.40;;
10191;SDS011;17580;50.850;4.504;2023-12-20T14:33:38;5.47;;;2.27;;
10191;SDS011;17580;50.850;4.504;2023-12-20T14:36:07;12.40;;;3.00;;
10191;SDS011;17580;50.850;4.504;2023-12-20T14:38:36;8.03;;;3.03;;
10191;SDS011;17580;50.850;4.504;2023-12-20T14:41:04;10.80;;;2.97;;
10191;SDS011;17580;50.850;4.504;2023-12-20T14:43:33;10.50;;;3.07;;
10191;SDS011;17580;50.850;4.504;2023-12-20T14:46:01;9.80;;;2.70;;